Time;durP1;ratioP1;P1;durP2;ratioP2;P2;SDS_P1;SDS_P2;PMS_P1;PMS_P2;Temp;Humidity;BMP_temperature;BMP_pressure;BME280_temperature;BME280_humidity;BME280_pressure;Samples;Min_cycle;Max_cycle;Signal;HPM_P1;HPM_P2
2023/06/05 00:00:52;;;;;;;18.88;12.93;;;;;;;;;;10496192;28;20028;-77
2023/06/05 00:05:53;;;;;;;18.17;12.83;;;;;;;;;;10487510;28;20463;-77
2023/06/05 00:10:53;;;;;;;20.77;13.77;;;;;;;;;;10497259;28;20081;-77
2023/06/05 00:15:53;;;;;;;19.02;13.05;;;;;;;;;;10497452;28;20084;-77
2023/06/05 00:20:53;;;;;;;23.53;13.93;;;;;;;;;;10494107;28;20381;-77
2023/06/05 00:25:54;;;;;;;16.80;11.75;;;;;;;;;;10489259;28;20097;-77
2023/06/05 00:30:54;;;;;;;19.07;13.03;;;;;;;;;;10479096;28;20330;-77
2023/06/05 00:35:54;;;;;;;18.50;11.93;;;;;;;;;;10470157;28;20260;-76
2023/06/05 00:40:55;;;;;;;17.98;12.50;;;;;;;;;;10487013;28;20029;-76
2023/06/05 00:45:58;;;;;;;22.45;12.57;;;;;;;;;;10478371;28;20032;-76
2023/06/05 00:50:58;;;;;;;21.27;12.85;;;;;;;;;;10466373;28;20330;-76
2023/06/05 00:55:59;;;;;;;19.13;11.57;;;;;;;;;;10490398;28;20024;-75
2023/06/05 01:01:00;;;;;;;20.83;12.75;;;;;;;;;;10489917;28;20016;-76
2023/06/05 01:06:04;;;;;;;29.30;12.35;;;;;;;;;;10479557;28;20062;-76
2023/06/05 01:11:08;;;;;;;21.38;13.65;;;;;;;;;;10477814;28;20059;-75
2023/06/05 01:16:09;;;;;;;19.55;13.20;;;;;;;;;;10490070;28;20025;-75
2023/06/05 01:21:13;;;;;;;17.90;12.75;;;;;;;;;;10484722;28;20097;-76
2023/06/05 01:26:18;;;;;;;20.10;12.10;;;;;;;;;;10465150;28;20095;-76
2023/06/05 01:31:20;;;;;;;19.67;11.82;;;;;;;;;;10455291;28;20025;-76
2023/06/05 01:36:21;;;;;;;20.13;12.63;;;;;;;;;;10498460;28;20306;-76
2023/06/05 01:41:21;;;;;;;28.98;14.32;;;;;;;;;;10498211;28;20095;-76
2023/06/05 01:46:22;;;;;;;27.63;15.05;;;;;;;;;;10497754;28;20078;-76
2023/06/05 01:51:22;;;;;;;24.00;15.50;;;;;;;;;;10515753;28;20016;-76
2023/06/05 01:56:23;;;;;;;22.52;13.35;;;;;;;;;;10504561;28;20024;-75
2023/06/05 02:01:24;;;;;;;27.38;14.70;;;;;;;;;;10496670;28;20199;-75
2023/06/05 02:06:25;;;;;;;30.48;14.55;;;;;;;;;;10496935;28;20206;-76
2023/06/05 02:11:26;;;;;;;30.88;15.48;;;;;;;;;;10496457;28;20052;-76
2023/06/05 02:16:26;;;;;;;23.77;14.38;;;;;;;;;;10511522;28;20249;-77
2023/06/05 02:21:26;;;;;;;22.98;14.65;;;;;;;;;;10496179;28;20046;-78
2023/06/05 02:26:27;;;;;;;22.67;13.90;;;;;;;;;;10496202;28;20324;-78
2023/06/05 02:31:28;;;;;;;21.77;14.30;;;;;;;;;;10496293;28;20029;-78
2023/06/05 02:36:32;;;;;;;27.63;14.85;;;;;;;;;;10496831;28;20055;-78
2023/06/05 02:41:33;;;;;;;21.13;13.80;;;;;;;;;;10496788;28;20035;-77
2023/06/05 02:46:33;;;;;;;22.83;14.07;;;;;;;;;;10497458;28;20034;-77
2023/06/05 02:51:33;;;;;;;25.73;14.90;;;;;;;;;;10496909;28;20034;-77
2023/06/05 02:56:34;;;;;;;24.83;14.80;;;;;;;;;;10511803;28;20191;-75
2023/06/05 03:01:35;;;;;;;26.45;14.98;;;;;;;;;;10511816;28;20178;-76
2023/06/05 03:06:35;;;;;;;23.35;14.82;;;;;;;;;;10495716;28;20036;-76
2023/06/05 03:11:35;;;;;;;22.38;14.80;;;;;;;;;;10496647;28;20150;-76
2023/06/05 03:16:42;;;;;;;26.25;14.32;;;;;;;;;;10496076;28;20314;-76
2023/06/05 03:21:43;;;;;;;35.53;16.38;;;;;;;;;;10495026;28;20016;-76
2023/06/05 03:26:43;;;;;;;29.77;16.48;;;;;;;;;;10495492;28;20429;-76
2023/06/05 03:31:44;;;;;;;21.30;15.30;;;;;;;;;;10496156;28;20048;-77
2023/06/05 03:36:44;;;;;;;22.80;15.25;;;;;;;;;;10496057;28;20024;-78
2023/06/05 03:41:44;;;;;;;35.00;15.30;;;;;;;;;;10496253;28;20024;-78
2023/06/05 03:46:45;;;;;;;30.52;16.85;;;;;;;;;;10500282;28;20320;-77
2023/06/05 03:51:46;;;;;;;28.17;16.25;;;;;;;;;;10488618;28;20021;-77
2023/06/05 03:56:49;;;;;;;28.83;15.60;;;;;;;;;;10476735;28;20327;-74
2023/06/05 04:01:50;;;;;;;27.85;16.58;;;;;;;;;;10491402;28;20051;-74
2023/06/05 04:06:51;;;;;;;29.40;15.90;;;;;;;;;;10514515;28;20035;-73
2023/06/05 04:11:52;;;;;;;31.05;16.67;;;;;;;;;;10471950;28;20063;-73
2023/06/05 04:16:52;;;;;;;33.55;18.83;;;;;;;;;;10478313;28;20047;-73
2023/06/05 04:21:53;;;;;;;25.13;17.25;;;;;;;;;;10470197;28;20302;-73
2023/06/05 04:26:53;;;;;;;38.27;16.33;;;;;;;;;;10489917;28;20258;-73
2023/06/05 04:31:54;;;;;;;23.48;14.10;;;;;;;;;;10469856;28;20071;-73
2023/06/05 04:36:54;;;;;;;34.60;15.73;;;;;;;;;;10484297;28;20028;-73
2023/06/05 04:41:54;;;;;;;29.38;14.48;;;;;;;;;;10468518;28;20023;-74
2023/06/05 04:46:55;;;;;;;20.98;12.57;;;;;;;;;;10493979;28;20116;-73
2023/06/05 04:51:56;;;;;;;22.83;13.48;;;;;;;;;;10483164;28;20031;-73
2023/06/05 04:56:57;;;;;;;21.38;13.32;;;;;;;;;;10505604;28;20318;-72
2023/06/05 05:01:57;;;;;;;21.85;11.65;;;;;;;;;;10474623;28;20117;-73
2023/06/05 05:07:01;;;;;;;23.42;11.43;;;;;;;;;;10497002;28;20021;-73
2023/06/05 05:12:01;;;;;;;21.50;12.48;;;;;;;;;;10498599;28;20054;-72
2023/06/05 05:17:02;;;;;;;22.00;11.60;;;;;;;;;;10499936;28;20028;-72
2023/06/05 05:22:03;;;;;;;18.30;10.95;;;;;;;;;;10481836;28;20322;-73
2023/06/05 05:27:03;;;;;;;18.58;10.98;;;;;;;;;;10499241;28;20100;-74
2023/06/05 05:32:03;;;;;;;18.57;11.43;;;;;;;;;;10514931;28;20020;-73
2023/06/05 05:37:04;;;;;;;16.60;9.88;;;;;;;;;;10498800;28;20466;-72
2023/06/05 05:42:04;;;;;;;15.73;10.07;;;;;;;;;;10481656;28;20016;-73
2023/06/05 05:47:05;;;;;;;16.52;9.57;;;;;;;;;;10481044;28;20035;-73
2023/06/05 05:52:05;;;;;;;14.37;9.83;;;;;;;;;;10498852;28;20025;-74
2023/06/05 05:57:07;;;;;;;18.73;9.82;;;;;;;;;;10498222;28;20295;-74
2023/06/05 06:02:09;;;;;;;23.85;11.00;;;;;;;;;;10481041;28;20029;-73
2023/06/05 06:07:09;;;;;;;16.65;9.60;;;;;;;;;;10501238;28;20306;-74
2023/06/05 06:12:10;;;;;;;13.43;9.02;;;;;;;;;;10498296;28;20175;-73
2023/06/05 06:17:11;;;;;;;15.82;9.10;;;;;;;;;;10498487;28;20047;-74
2023/06/05 06:22:12;;;;;;;14.40;8.32;;;;;;;;;;10497516;28;20020;-73
2023/06/05 06:27:12;;;;;;;15.07;9.43;;;;;;;;;;10497424;28;20040;-72
2023/06/05 06:32:27;;;;;;;19.27;10.27;;;;;;;;;;10497718;28;20055;-73
2023/06/05 06:37:28;;;;;;;19.80;9.23;;;;;;;;;;10497177;28;20035;-73
2023/06/05 06:42:28;;;;;;;16.83;8.77;;;;;;;;;;10497506;28;20032;-73
2023/06/05 06:47:28;;;;;;;16.48;9.90;;;;;;;;;;10497378;28;20278;-73
2023/06/05 06:52:29;;;;;;;16.15;8.80;;;;;;;;;;10498079;28;20012;-74
2023/06/05 06:57:29;;;;;;;15.93;9.77;;;;;;;;;;10497092;28;20336;-73
2023/06/05 07:02:29;;;;;;;15.65;9.65;;;;;;;;;;10497012;28;20024;-73
2023/06/05 07:07:36;;;;;;;19.25;9.32;;;;;;;;;;10496976;28;20027;-73
2023/06/05 07:12:37;;;;;;;19.85;9.63;;;;;;;;;;10497004;28;20273;-74
2023/06/05 07:17:37;;;;;;;13.03;9.30;;;;;;;;;;10496870;28;20069;-74
2023/06/05 07:22:42;;;;;;;14.90;9.65;;;;;;;;;;10504522;28;20261;-72
2023/06/05 07:27:46;;;;;;;19.85;10.38;;;;;;;;;;10504676;28;20374;-73
2023/06/05 07:32:49;;;;;;;18.10;10.43;;;;;;;;;;10504117;28;20020;-73
2023/06/05 07:37:49;;;;;;;13.25;8.73;;;;;;;;;;10490764;28;20028;-73
2023/06/05 07:42:49;;;;;;;19.02;9.93;;;;;;;;;;10503943;28;20024;-74
2023/06/05 07:47:50;;;;;;;11.18;7.72;;;;;;;;;;10503786;28;20028;-73
2023/06/05 07:52:51;;;;;;;16.50;8.98;;;;;;;;;;10486027;28;20310;-73
2023/06/05 07:57:52;;;;;;;16.77;8.80;;;;;;;;;;10503810;28;20016;-73
2023/06/05 08:02:53;;;;;;;12.73;8.50;;;;;;;;;;10502931;28;20016;-73
2023/06/05 08:07:53;;;;;;;13.15;8.10;;;;;;;;;;10502935;28;20091;-73
2023/06/05 08:12:53;;;;;;;12.00;7.30;;;;;;;;;;10484626;28;20286;-73
2023/06/05 08:17:54;;;;;;;11.77;8.75;;;;;;;;;;10503061;28;20028;-73
2023/06/05 08:23:05;;;;;;;15.07;10.10;;;;;;;;;;10502564;28;20035;-73
2023/06/05 08:28:05;;;;;;;11.45;7.57;;;;;;;;;;10420291;28;20374;-72
2023/06/05 08:33:06;;;;;;;13.27;8.13;;;;;;;;;;10437770;28;20025;-73
2023/06/05 08:38:06;;;;;;;12.90;8.20;;;;;;;;;;10460763;28;20298;-72
2023/06/05 08:43:06;;;;;;;16.20;8.02;;;;;;;;;;10460436;28;20033;-73
2023/06/05 08:48:11;;;;;;;11.32;7.88;;;;;;;;;;10459891;28;20063;-73
2023/06/05 08:53:12;;;;;;;14.40;9.00;;;;;;;;;;10456306;28;20017;-73
2023/06/05 08:58:13;;;;;;;20.40;9.93;;;;;;;;;;10457876;28;20074;-74
2023/06/05 09:03:14;;;;;;;16.08;9.43;;;;;;;;;;10459966;28;20029;-73
2023/06/05 09:08:16;;;;;;;17.90;10.07;;;;;;;;;;10459714;28;20028;-74
2023/06/05 09:13:16;;;;;;;14.60;8.95;;;;;;;;;;10459941;28;20025;-73
2023/06/05 09:18:16;;;;;;;11.97;8.10;;;;;;;;;;10458972;28;20104;-72
2023/06/05 09:23:26;;;;;;;13.30;8.05;;;;;;;;;;10460570;28;20317;-72
2023/06/05 09:28:26;;;;;;;19.52;9.50;;;;;;;;;;10499256;28;20164;-73
2023/06/05 09:33:28;;;;;;;17.40;8.50;;;;;;;;;;10482027;28;20017;-73
2023/06/05 09:38:28;;;;;;;13.48;8.77;;;;;;;;;;10499483;28;20028;-73
2023/06/05 09:43:28;;;;;;;19.57;9.90;;;;;;;;;;10498440;28;20333;-72
2023/06/05 09:48:28;;;;;;;23.35;13.95;;;;;;;;;;10498579;28;20043;-73
2023/06/05 09:53:29;;;;;;;17.08;9.50;;;;;;;;;;10499181;28;20020;-73
2023/06/05 09:58:29;;;;;;;15.75;10.43;;;;;;;;;;10499058;28;20244;-73
2023/06/05 10:03:30;;;;;;;12.97;8.67;;;;;;;;;;10498590;28;20322;-73
2023/06/05 10:08:31;;;;;;;19.08;10.25;;;;;;;;;;10498119;28;20491;-72
2023/06/05 10:13:32;;;;;;;15.52;10.18;;;;;;;;;;10498785;28;20039;-73
2023/06/05 10:18:32;;;;;;;20.25;10.10;;;;;;;;;;10497929;28;20134;-73
2023/06/05 10:23:33;;;;;;;16.53;9.40;;;;;;;;;;10498079;28;20605;-72
2023/06/05 10:28:43;;;;;;;15.07;9.70;;;;;;;;;;10505252;22;20309;-78
2023/06/05 10:33:49;;;;;;;20.17;10.55;;;;;;;;;;10482143;28;20101;-77
2023/06/05 10:38:55;;;;;;;21.25;11.07;;;;;;;;;;10472265;28;20024;-87
2023/06/05 10:43:58;;;;;;;16.27;10.13;;;;;;;;;;10451255;28;20044;-79
2023/06/05 10:49:08;;;;;;;21.73;12.07;;;;;;;;;;10470834;28;20025;-84
2023/06/05 10:54:17;;;;;;;17.95;10.95;;;;;;;;;;10453415;28;20060;-82
2023/06/05 10:59:20;;;;;;;16.45;9.68;;;;;;;;;;10489569;28;20491;-74
2023/06/05 11:04:21;;;;;;;16.52;9.98;;;;;;;;;;10502509;28;20032;-77
2023/06/05 11:09:23;;;;;;;16.50;10.30;;;;;;;;;;10447001;28;20017;-73
2023/06/05 11:14:38;;;;;;;22.25;11.68;;;;;;;;;;10488648;28;20275;-78
2023/06/05 11:19:43;;;;;;;16.58;9.55;;;;;;;;;;10477301;28;20029;-72
2023/06/05 11:24:43;;;;;;;15.95;9.50;;;;;;;;;;10455672;28;20036;-78
2023/06/05 11:29:44;;;;;;;14.15;8.90;;;;;;;;;;10470850;28;20048;-78
2023/06/05 11:34:50;;;;;;;15.55;7.35;;;;;;;;;;10471451;28;20414;-78
2023/06/05 11:39:51;;;;;;;10.75;7.05;;;;;;;;;;10491476;28;20400;-79
2023/06/05 11:44:51;;;;;;;13.02;7.45;;;;;;;;;;10487655;22;20106;-74
2023/06/05 11:49:51;;;;;;;22.35;7.93;;;;;;;;;;10481600;28;20032;-74
2023/06/05 11:55:05;;;;;;;8.93;5.30;;;;;;;;;;10484716;28;20028;-74
2023/06/05 12:00:09;;;;;;;8.10;5.40;;;;;;;;;;10501887;28;20079;-74
2023/06/05 12:05:09;;;;;;;9.57;5.78;;;;;;;;;;10500548;28;20330;-73
2023/06/05 12:10:10;;;;;;;11.68;5.47;;;;;;;;;;10502536;28;20021;-74
2023/06/05 12:15:17;;;;;;;8.80;5.07;;;;;;;;;;10502148;28;20104;-74
2023/06/05 12:20:18;;;;;;;9.38;5.90;;;;;;;;;;10501081;28;20028;-74
2023/06/05 12:25:18;;;;;;;8.48;5.20;;;;;;;;;;10500954;28;20024;-74
2023/06/05 12:30:19;;;;;;;7.30;4.55;;;;;;;;;;10501072;28;20068;-73
2023/06/05 12:35:19;;;;;;;9.10;5.27;;;;;;;;;;10483736;28;20032;-73
2023/06/05 12:40:22;;;;;;;7.32;4.82;;;;;;;;;;10500841;28;20055;-73
2023/06/05 12:45:23;;;;;;;7.18;4.40;;;;;;;;;;10500267;28;20060;-73
2023/06/05 12:50:25;;;;;;;8.10;5.33;;;;;;;;;;10500354;28;20044;-73
2023/06/05 12:55:27;;;;;;;8.15;4.57;;;;;;;;;;10500473;28;20390;-74
2023/06/05 13:00:27;;;;;;;16.67;5.57;;;;;;;;;;10500887;28;20092;-75
2023/06/05 13:05:28;;;;;;;8.38;4.00;;;;;;;;;;10496791;28;20066;-74
2023/06/05 13:10:28;;;;;;;8.02;4.18;;;;;;;;;;10469044;28;20017;-74
2023/06/05 13:15:28;;;;;;;5.73;4.10;;;;;;;;;;10488091;28;20379;-74
2023/06/05 13:20:28;;;;;;;7.53;4.43;;;;;;;;;;10500699;28;20188;-74
2023/06/05 13:25:29;;;;;;;7.97;4.57;;;;;;;;;;10498703;28;20082;-74
2023/06/05 13:30:29;;;;;;;7.03;4.18;;;;;;;;;;10498533;28;20024;-74
2023/06/05 13:35:29;;;;;;;10.55;4.97;;;;;;;;;;10498979;28;20349;-74
2023/06/05 13:40:32;;;;;;;8.15;4.35;;;;;;;;;;10498204;28;20017;-74
2023/06/05 13:45:32;;;;;;;7.13;4.80;;;;;;;;;;10498465;28;20044;-72
2023/06/05 13:50:32;;;;;;;5.57;4.18;;;;;;;;;;10498090;28;20211;-72
2023/06/05 13:55:32;;;;;;;7.10;4.03;;;;;;;;;;10498648;28;20047;-72
2023/06/05 14:00:33;;;;;;;5.30;4.05;;;;;;;;;;10497900;28;20366;-75
2023/06/05 14:05:33;;;;;;;6.57;4.20;;;;;;;;;;10479725;28;20063;-74
2023/06/05 14:10:36;;;;;;;4.57;3.97;;;;;;;;;;10482982;28;20028;-78
2023/06/05 14:15:36;;;;;;;7.75;3.38;;;;;;;;;;10479378;28;20332;-77
2023/06/05 14:20:37;;;;;;;6.30;4.35;;;;;;;;;;10493983;28;20020;-77
2023/06/05 14:25:37;;;;;;;12.00;4.60;;;;;;;;;;10497626;28;20044;-79
2023/06/05 14:30:37;;;;;;;7.15;4.65;;;;;;;;;;10497737;28;20016;-75
2023/06/05 14:35:37;;;;;;;9.05;4.57;;;;;;;;;;10476919;28;20264;-75
2023/06/05 14:40:44;;;;;;;8.73;5.20;;;;;;;;;;10476947;28;20127;-75
2023/06/05 14:45:44;;;;;;;8.65;4.63;;;;;;;;;;10496233;28;20046;-75
2023/06/05 14:50:46;;;;;;;13.18;7.10;;;;;;;;;;10496825;28;20203;-75
2023/06/05 14:55:46;;;;;;;6.55;4.95;;;;;;;;;;10496671;28;20016;-75
2023/06/05 15:00:48;;;;;;;9.83;5.40;;;;;;;;;;10496700;28;20346;-75
2023/06/05 15:05:48;;;;;;;9.40;5.90;;;;;;;;;;10477947;28;20501;-75
2023/06/05 15:10:49;;;;;;;13.80;6.10;;;;;;;;;;10496146;28;20016;-76
2023/06/05 15:15:49;;;;;;;15.45;6.20;;;;;;;;;;10496306;28;20096;-75
2023/06/05 15:20:50;;;;;;;10.20;5.87;;;;;;;;;;10496797;28;20116;-75
2023/06/05 15:25:50;;;;;;;13.90;6.70;;;;;;;;;;10478646;28;20020;-76
2023/06/05 15:30:51;;;;;;;11.80;6.07;;;;;;;;;;10495329;28;20055;-75
2023/06/05 15:35:51;;;;;;;9.02;6.22;;;;;;;;;;10495680;28;20016;-76
2023/06/05 15:40:51;;;;;;;8.60;5.50;;;;;;;;;;10500234;28;20321;-75
2023/06/05 15:45:51;;;;;;;10.93;5.93;;;;;;;;;;10491699;28;20041;-76
2023/06/05 15:50:52;;;;;;;8.37;6.47;;;;;;;;;;10465941;28;20111;-75
2023/06/05 15:55:52;;;;;;;13.27;6.13;;;;;;;;;;10502180;28;20039;-75
2023/06/05 16:00:52;;;;;;;10.48;6.10;;;;;;;;;;10490082;28;20103;-75
2023/06/05 16:05:52;;;;;;;16.55;6.60;;;;;;;;;;10482171;28;20052;-75
2023/06/05 16:10:53;;;;;;;10.52;5.78;;;;;;;;;;10503032;28;20036;-75
2023/06/05 16:15:53;;;;;;;8.23;5.80;;;;;;;;;;10456843;28;20048;-75
2023/06/05 16:20:53;;;;;;;12.07;6.57;;;;;;;;;;10486054;28;20411;-75
2023/06/05 16:25:54;;;;;;;9.98;6.32;;;;;;;;;;10503394;28;20294;-75
2023/06/05 16:30:54;;;;;;;17.77;6.20;;;;;;;;;;10510592;28;20043;-74
2023/06/05 16:35:57;;;;;;;8.60;6.18;;;;;;;;;;10505436;28;20078;-74
2023/06/05 16:40:57;;;;;;;15.40;6.50;;;;;;;;;;10503609;28;20031;-76
2023/06/05 16:45:58;;;;;;;15.00;7.35;;;;;;;;;;10513941;28;20324;-77
2023/06/05 16:50:58;;;;;;;12.32;6.72;;;;;;;;;;10512095;28;20079;-74
2023/06/05 16:55:59;;;;;;;11.85;7.13;;;;;;;;;;10504600;28;20024;-73
2023/06/05 17:00:59;;;;;;;10.10;5.83;;;;;;;;;;10509186;28;20008;-74
2023/06/05 17:06:00;;;;;;;12.83;6.60;;;;;;;;;;10505658;28;20292;-75
2023/06/05 17:11:00;;;;;;;12.25;5.50;;;;;;;;;;10504590;28;20020;-74
2023/06/05 17:16:00;;;;;;;11.45;6.97;;;;;;;;;;10501760;28;20040;-74
2023/06/05 17:21:00;;;;;;;7.70;5.60;;;;;;;;;;10501956;28;20085;-73
2023/06/05 17:26:01;;;;;;;14.48;5.88;;;;;;;;;;10502967;28;20552;-73
2023/06/05 17:31:01;;;;;;;12.02;6.50;;;;;;;;;;10501066;28;20009;-73
2023/06/05 17:36:01;;;;;;;10.57;6.35;;;;;;;;;;10497574;28;20020;-73
2023/06/05 17:41:02;;;;;;;8.10;6.38;;;;;;;;;;10505905;28;20013;-75
2023/06/05 17:46:02;;;;;;;10.40;6.15;;;;;;;;;;10486621;28;20297;-75
2023/06/05 17:51:02;;;;;;;11.02;6.07;;;;;;;;;;10492283;28;20029;-73
2023/06/05 17:56:03;;;;;;;17.93;5.70;;;;;;;;;;10496961;28;20389;-82
2023/06/05 18:01:03;;;;;;;16.65;6.88;;;;;;;;;;10491708;28;20283;-84
2023/06/05 18:06:03;;;;;;;9.73;5.53;;;;;;;;;;10496194;28;20036;-81
2023/06/05 18:11:04;;;;;;;13.57;7.18;;;;;;;;;;10500419;28;20019;-82
2023/06/05 18:16:04;;;;;;;10.43;5.25;;;;;;;;;;10494758;28;20038;-80
2023/06/05 18:21:10;;;;;;;14.38;6.50;;;;;;;;;;10478312;28;20280;-80
2023/06/05 18:26:11;;;;;;;9.63;5.68;;;;;;;;;;10488784;28;20068;-82
2023/06/05 18:31:12;;;;;;;11.88;6.22;;;;;;;;;;10500193;28;20192;-82
2023/06/05 18:36:13;;;;;;;11.60;6.28;;;;;;;;;;10490179;28;20214;-81
2023/06/05 18:41:16;;;;;;;14.30;6.53;;;;;;;;;;10497491;28;20027;-83
2023/06/05 18:46:16;;;;;;;14.15;6.43;;;;;;;;;;10507875;28;20048;-82
2023/06/05 18:51:17;;;;;;;15.07;6.33;;;;;;;;;;10491945;28;20031;-77
2023/06/05 18:56:17;;;;;;;12.63;6.03;;;;;;;;;;10496782;28;20054;-76
2023/06/05 19:01:17;;;;;;;10.13;5.97;;;;;;;;;;10495400;28;20280;-76
2023/06/05 19:06:18;;;;;;;11.47;6.50;;;;;;;;;;10499628;28;20266;-77
2023/06/05 19:11:20;;;;;;;12.57;7.07;;;;;;;;;;10493028;28;20019;-78
2023/06/05 19:16:20;;;;;;;10.85;5.72;;;;;;;;;;10477372;28;20054;-78
2023/06/05 19:21:20;;;;;;;11.65;6.35;;;;;;;;;;10510200;28;20028;-80
2023/06/05 19:26:21;;;;;;;14.75;5.97;;;;;;;;;;10505092;28;20021;-78
2023/06/05 19:31:21;;;;;;;12.30;6.43;;;;;;;;;;10485104;28;20310;-79
2023/06/05 19:36:22;;;;;;;14.63;5.95;;;;;;;;;;10502602;28;20085;-77
2023/06/05 19:41:23;;;;;;;11.60;5.97;;;;;;;;;;10501595;28;20092;-78
2023/06/05 19:46:23;;;;;;;11.43;5.90;;;;;;;;;;10492066;28;20051;-78
2023/06/05 19:51:24;;;;;;;11.67;5.43;;;;;;;;;;10503481;28;20415;-77
2023/06/05 19:56:25;;;;;;;8.63;4.85;;;;;;;;;;10508901;28;20025;-79
2023/06/05 20:01:26;;;;;;;11.02;4.47;;;;;;;;;;10511174;28;20474;-81
2023/06/05 20:06:26;;;;;;;9.50;4.80;;;;;;;;;;10518977;28;20016;-80
2023/06/05 20:11:27;;;;;;;10.50;4.50;;;;;;;;;;10501362;28;20021;-81
2023/06/05 20:16:28;;;;;;;8.20;3.72;;;;;;;;;;10490875;28;20441;-81
2023/06/05 20:21:31;;;;;;;11.90;4.30;;;;;;;;;;10503009;28;20076;-82
2023/06/05 20:26:31;;;;;;;10.05;4.18;;;;;;;;;;10477832;28;20082;-88
2023/06/05 20:31:32;;;;;;;8.68;3.63;;;;;;;;;;10504135;28;20024;-86
2023/06/05 20:36:34;;;;;;;6.20;3.20;;;;;;;;;;10480571;28;20023;-88
2023/06/05 20:41:36;;;;;;;9.05;3.80;;;;;;;;;;10509777;28;20266;-87
2023/06/05 20:46:36;;;;;;;6.28;3.17;;;;;;;;;;10473126;28;20249;-86
2023/06/05 20:51:41;;;;;;;6.97;3.50;;;;;;;;;;10479987;28;20070;-86
2023/06/05 20:56:41;;;;;;;7.68;2.88;;;;;;;;;;10470657;28;20087;-87
2023/06/05 21:01:43;;;;;;;8.20;3.60;;;;;;;;;;10494905;28;20055;-86
2023/06/05 21:06:43;;;;;;;7.82;3.90;;;;;;;;;;10499117;28;20038;-87
2023/06/05 21:11:43;;;;;;;5.78;2.45;;;;;;;;;;10513500;28;20051;-86
2023/06/05 21:16:44;;;;;;;5.20;2.70;;;;;;;;;;10494741;28;20509;-85
2023/06/05 21:21:45;;;;;;;4.75;2.80;;;;;;;;;;10483830;28;20043;-86
2023/06/05 21:26:45;;;;;;;6.43;2.58;;;;;;;;;;10495763;28;20025;-85
2023/06/05 21:31:52;;;;;;;5.22;2.65;;;;;;;;;;10496136;28;20012;-86
2023/06/05 21:36:52;;;;;;;6.55;2.88;;;;;;;;;;10485197;28;20214;-85
2023/06/05 21:41:53;;;;;;;4.57;2.75;;;;;;;;;;10471920;28;20063;-86
2023/06/05 21:46:53;;;;;;;5.28;2.85;;;;;;;;;;10469815;28;20334;-83
2023/06/05 21:51:53;;;;;;;8.57;2.10;;;;;;;;;;10490171;28;20324;-83
2023/06/05 21:56:53;;;;;;;6.32;2.42;;;;;;;;;;10494157;28;20035;-85
2023/06/05 22:01:54;;;;;;;4.90;2.55;;;;;;;;;;10445869;23;20605;-81
2023/06/05 22:06:54;;;;;;;7.13;2.35;;;;;;;;;;10415532;28;20025;-78
2023/06/05 22:12:03;;;;;;;7.20;2.63;;;;;;;;;;10418459;28;20020;-79
2023/06/05 22:17:07;;;;;;;4.18;2.10;;;;;;;;;;10418718;28;20272;-75
2023/06/05 22:22:08;;;;;;;4.10;2.35;;;;;;;;;;10417261;28;20518;-79
2023/06/05 22:27:08;;;;;;;4.80;2.08;;;;;;;;;;10415855;28;20025;-75
2023/06/05 22:32:08;;;;;;;5.00;2.58;;;;;;;;;;10423510;28;20037;-75
2023/06/05 22:37:11;;;;;;;7.15;2.55;;;;;;;;;;10441380;28;20036;-76
2023/06/05 22:42:11;;;;;;;4.88;2.30;;;;;;;;;;10436164;28;20024;-76
2023/06/05 22:47:12;;;;;;;2.92;2.10;;;;;;;;;;10423116;28;20040;-78
2023/06/05 22:52:15;;;;;;;5.65;1.90;;;;;;;;;;10438182;28;20543;-81
2023/06/05 22:57:16;;;;;;;5.03;2.00;;;;;;;;;;10416361;28;20052;-80
2023/06/05 23:02:17;;;;;;;7.22;2.85;;;;;;;;;;10385775;28;20069;-81
2023/06/05 23:07:17;;;;;;;6.03;2.75;;;;;;;;;;10391131;28;20018;-76
2023/06/05 23:12:18;;;;;;;4.07;1.97;;;;;;;;;;10386439;28;20020;-78
2023/06/05 23:17:18;;;;;;;5.93;1.90;;;;;;;;;;10391474;28;20033;-82
2023/06/05 23:22:18;;;;;;;4.13;2.03;;;;;;;;;;10389068;28;20336;-76
2023/06/05 23:27:18;;;;;;;4.80;2.08;;;;;;;;;;10389840;28;20025;-80
2023/06/05 23:32:19;;;;;;;3.72;1.92;;;;;;;;;;10390937;28;20022;-78
2023/06/05 23:37:20;;;;;;;3.28;1.77;;;;;;;;;;10389136;28;20068;-74
2023/06/05 23:42:22;;;;;;;2.63;1.40;;;;;;;;;;10393234;28;20030;-74
2023/06/05 23:47:23;;;;;;;6.03;2.42;;;;;;;;;;10387848;28;20029;-81
2023/06/05 23:52:26;;;;;;;4.50;2.08;;;;;;;;;;10376857;28;20013;-75
2023/06/05 23:57:26;;;;;;;2.88;1.58;;;;;;;;;;10399005;28;20423;-75
